Time;durP1;ratioP1;P1;durP2;ratioP2;P2;SDS_P1;SDS_P2;PMS_P1;PMS_P2;Temp;Humidity;BMP_temperature;BMP_pressure;BME280_temperature;BME280_humidity;BME280_pressure;Samples;Min_cycle;Max_cycle;Signal;HPM_P1;HPM_P2
2022/11/05 00:09:32;;;;;;;6.38;3.45;;;9.20;99.90;;;;;;5061073;28;20196;-82
2022/11/05 00:17:40;;;;;;;3.97;3.67;;;9.10;99.90;;;;;;5059087;28;20186;-82
2022/11/05 00:20:09;;;;;;;5.38;3.83;;;8.90;99.90;;;;;;5058529;28;20202;-82
2022/11/05 00:25:21;;;;;;;3.80;2.88;;;8.80;99.90;;;;;;5066580;28;20233;-83
2022/11/05 00:27:51;;;;;;;2.58;2.42;;;8.80;99.90;;;;;;5058502;28;20206;-83
2022/11/05 00:30:19;;;;;;;6.07;2.20;;;8.80;99.90;;;;;;5056428;28;20217;-81
2022/11/05 00:32:49;;;;;;;2.13;2.03;;;8.80;99.90;;;;;;5056226;28;20201;-82
2022/11/05 00:35:17;;;;;;;1.98;1.83;;;8.90;99.90;;;;;;5055971;28;20232;-81
2022/11/05 00:37:44;;;;;;;3.40;1.83;;;8.90;99.90;;;;;;5054246;28;20229;-81
2022/11/05 00:40:12;;;;;;;2.55;2.30;;;8.80;99.90;;;;;;5054702;28;20206;-81
2022/11/05 00:45:26;;;;;;;1.55;1.40;;;8.70;99.90;;;;;;5054794;28;20207;-81
2022/11/05 00:50:39;;;;;;;2.28;1.90;;;8.70;99.90;;;;;;5055690;28;20816;-82
2022/11/05 00:53:06;;;;;;;1.85;1.75;;;8.70;99.90;;;;;;5055974;28;20216;-82
2022/11/05 00:55:36;;;;;;;2.80;2.13;;;8.80;99.90;;;;;;5055470;28;20222;-82
2022/11/05 00:58:05;;;;;;;1.50;1.35;;;8.80;99.90;;;;;;5055254;28;20609;-81
2022/11/05 01:00:34;;;;;;;3.67;2.05;;;8.90;99.90;;;;;;5053973;28;20706;-81
2022/11/05 01:03:05;;;;;;;1.45;1.33;;;8.90;99.90;;;;;;5054614;28;20233;-81
2022/11/05 01:05:33;;;;;;;1.58;1.52;;;9.00;99.90;;;;;;5054886;28;20203;-81
2022/11/05 01:08:00;;;;;;;1.77;1.60;;;9.10;99.90;;;;;;5064061;28;20233;-82
2022/11/05 01:10:28;;;;;;;1.45;1.35;;;9.10;99.90;;;;;;5070133;28;20225;-82
2022/11/05 01:12:54;;;;;;;2.05;1.30;;;9.20;99.90;;;;;;5069758;28;20221;-81
2022/11/05 01:15:22;;;;;;;2.13;1.98;;;9.10;99.90;;;;;;5068719;28;20223;-82
2022/11/05 01:17:50;;;;;;;1.45;1.35;;;9.10;99.90;;;;;;5075442;28;20217;-83
2022/11/05 01:20:18;;;;;;;2.00;1.20;;;9.00;99.90;;;;;;5059999;28;20203;-81
2022/11/05 01:22:45;;;;;;;1.00;1.00;;;9.00;99.90;;;;;;5057835;28;20678;-81
2022/11/05 01:25:12;;;;;;;1.40;1.30;;;8.90;99.90;;;;;;5058306;28;20195;-81
2022/11/05 01:27:39;;;;;;;1.40;1.30;;;8.80;99.90;;;;;;5057427;28;20240;-81
2022/11/05 01:30:07;;;;;;;1.25;1.25;;;8.80;99.90;;;;;;5063317;28;20209;-82
2022/11/05 01:32:35;;;;;;;1.85;1.70;;;8.70;99.90;;;;;;5069537;28;20232;-81
2022/11/05 01:35:02;;;;;;;1.45;1.27;;;8.80;99.90;;;;;;5070174;28;20572;-82
2022/11/05 01:37:30;;;;;;;2.22;1.80;;;8.80;99.90;;;;;;5069392;28;20199;-83
2022/11/05 01:39:57;;;;;;;1.45;1.30;;;8.80;99.90;;;;;;5069475;28;20214;-82
2022/11/05 01:42:25;;;;;;;1.73;1.63;;;8.80;99.90;;;;;;5063108;28;20723;-81
2022/11/05 01:44:56;;;;;;;2.03;1.60;;;8.80;99.90;;;;;;5063513;28;20208;-81
2022/11/05 01:47:39;;;;;;;1.42;1.20;;;8.80;99.90;;;;;;5066268;28;20268;-79
2022/11/05 01:50:36;;;;;;;2.35;1.90;;;9.00;99.90;;;;;;5062273;28;20194;-81
2022/11/05 01:53:09;;;;;;;1.85;1.67;;;9.10;99.90;;;;;;5060668;28;20269;-82
2022/11/05 01:55:40;;;;;;;1.58;1.48;;;9.00;99.90;;;;;;5061805;28;20214;-81
2022/11/05 01:58:11;;;;;;;1.50;1.27;;;9.10;99.90;;;;;;5061970;28;20192;-81
2022/11/05 02:00:39;;;;;;;1.65;1.55;;;9.10;99.90;;;;;;5061209;28;20222;-81
2022/11/05 02:03:06;;;;;;;1.92;1.80;;;9.20;99.90;;;;;;5061371;28;20208;-82
2022/11/05 02:05:34;;;;;;;2.00;1.80;;;9.20;99.90;;;;;;5061660;28;20207;-82
2022/11/05 02:08:02;;;;;;;1.60;1.50;;;9.20;99.90;;;;;;5059806;28;20216;-82
2022/11/05 02:10:31;;;;;;;3.53;1.88;;;9.10;99.90;;;;;;5072866;28;20219;-81
2022/11/05 02:12:59;;;;;;;1.92;1.83;;;9.20;99.90;;;;;;5064281;28;20214;-80
2022/11/05 02:15:36;;;;;;;2.15;1.70;;;9.30;99.90;;;;;;5056588;28;20227;-79
2022/11/05 02:18:15;;;;;;;1.38;1.23;;;9.40;99.90;;;;;;5055586;28;20205;-80
2022/11/05 02:20:49;;;;;;;1.98;1.85;;;9.40;99.90;;;;;;5056903;28;20222;-80
2022/11/05 02:23:38;;;;;;;2.95;2.75;;;9.20;99.90;;;;;;5056607;28;20199;-79
2022/11/05 02:26:28;;;;;;;1.75;1.65;;;9.10;99.90;;;;;;5056548;28;20210;-79
2022/11/05 02:29:24;;;;;;;3.15;1.70;;;9.20;99.90;;;;;;5056113;28;20206;-79
2022/11/05 02:32:00;;;;;;;3.47;1.95;;;9.20;99.90;;;;;;5058290;28;20218;-79
2022/11/05 02:34:33;;;;;;;1.55;1.45;;;9.20;99.90;;;;;;5062568;28;20226;-79
2022/11/05 02:37:09;;;;;;;1.58;1.48;;;9.20;99.90;;;;;;5062701;28;20194;-78
2022/11/05 02:39:42;;;;;;;2.35;1.55;;;9.10;99.90;;;;;;5057928;28;20217;-79
2022/11/05 02:42:20;;;;;;;2.35;1.65;;;9.20;99.90;;;;;;5056528;28;20223;-79
2022/11/05 02:44:54;;;;;;;1.10;1.10;;;9.40;99.90;;;;;;5055675;28;20668;-79
2022/11/05 02:47:29;;;;;;;1.50;1.50;;;9.20;99.90;;;;;;5056258;28;20216;-80
2022/11/05 02:50:11;;;;;;;1.67;1.58;;;9.20;99.90;;;;;;5055724;28;20209;-79
2022/11/05 02:52:46;;;;;;;1.88;1.63;;;9.30;99.90;;;;;;5056117;28;20217;-79
2022/11/05 02:55:22;;;;;;;1.50;1.40;;;9.30;99.90;;;;;;5055997;28;20698;-79
2022/11/05 02:57:49;;;;;;;1.35;1.30;;;9.40;99.90;;;;;;5056171;28;20213;-79
2022/11/05 03:00:44;;;;;;;1.45;1.38;;;9.40;99.90;;;;;;5055588;28;20202;-79
2022/11/05 03:03:23;;;;;;;1.70;1.20;;;9.10;99.90;;;;;;5067845;28;20304;-80
2022/11/05 03:05:59;;;;;;;1.35;1.25;;;9.10;99.90;;;;;;5056605;28;20213;-80
2022/11/05 03:08:38;;;;;;;1.55;1.45;;;9.10;99.90;;;;;;5055732;28;20684;-80
2022/11/05 03:11:13;;;;;;;1.40;1.30;;;9.00;99.90;;;;;;5055538;28;20222;-80
2022/11/05 03:13:50;;;;;;;1.30;1.20;;;9.00;99.90;;;;;;5056183;28;20262;-80
2022/11/05 03:16:21;;;;;;;2.10;1.30;;;9.20;99.90;;;;;;5056091;28;20742;-81
2022/11/05 03:18:58;;;;;;;2.03;1.92;;;9.10;99.90;;;;;;5056387;28;20212;-81
2022/11/05 03:21:38;;;;;;;2.20;1.52;;;9.10;99.90;;;;;;5055940;28;20226;-81
2022/11/05 03:24:11;;;;;;;2.33;2.15;;;9.10;99.90;;;;;;5056566;28;20206;-81
2022/11/05 03:26:44;;;;;;;2.05;1.90;;;9.20;99.90;;;;;;5055711;28;20238;-82
2022/11/05 03:29:16;;;;;;;1.70;1.35;;;9.20;99.90;;;;;;5054943;28;20201;-81
2022/11/05 03:31:46;;;;;;;1.80;1.70;;;9.00;99.90;;;;;;5052377;28;20225;-82
2022/11/05 03:34:17;;;;;;;1.65;1.55;;;9.00;99.90;;;;;;5056296;28;20692;-82
2022/11/05 03:36:47;;;;;;;2.38;2.13;;;9.00;99.90;;;;;;5056176;28;20199;-82
2022/11/05 03:39:19;;;;;;;2.33;1.80;;;8.90;99.90;;;;;;5056627;28;20220;-82
2022/11/05 03:41:50;;;;;;;2.10;2.00;;;8.80;99.90;;;;;;5056001;28;20576;-81
2022/11/05 03:44:24;;;;;;;3.50;2.05;;;8.70;99.90;;;;;;5055384;28;20594;-81
2022/11/05 03:46:55;;;;;;;2.70;2.15;;;8.70;99.90;;;;;;5055226;28;20209;-82
2022/11/05 03:49:27;;;;;;;3.25;2.10;;;8.70;99.90;;;;;;5055598;28;20218;-81
2022/11/05 03:51:58;;;;;;;2.97;2.60;;;8.90;99.90;;;;;;5055402;28;20225;-81
2022/11/05 03:54:25;;;;;;;3.22;2.95;;;8.80;99.90;;;;;;5057302;28;20210;-82
2022/11/05 03:57:01;;;;;;;2.10;2.00;;;8.80;99.90;;;;;;5065534;28;20210;-81
2022/11/05 03:59:29;;;;;;;2.47;2.30;;;8.90;99.90;;;;;;5055630;28;20280;-82
2022/11/05 04:01:57;;;;;;;2.42;2.22;;;9.00;99.90;;;;;;5055817;28;20598;-81
2022/11/05 04:04:25;;;;;;;2.20;2.10;;;9.10;99.90;;;;;;5055707;28;20214;-80
2022/11/05 04:15:16;;;;;;;2.90;2.53;;;9.00;99.90;;;;;;5032124;28;20217;-81
2022/11/05 04:17:41;;;;;;;3.25;2.50;;;9.10;99.90;;;;;;5049456;28;20213;-82
2022/11/05 04:25:43;;;;;;;6.53;2.25;;;9.10;99.90;;;;;;5054325;28;20248;-82
2022/11/05 04:28:10;;;;;;;2.45;2.25;;;9.10;99.90;;;;;;5055091;28;20210;-81
2022/11/05 04:30:36;;;;;;;2.65;2.42;;;9.00;99.90;;;;;;5055609;28;20226;-82
2022/11/05 04:33:05;;;;;;;7.00;3.27;;;8.90;99.90;;;;;;5054646;28;20208;-82
2022/11/05 04:35:35;;;;;;;6.22;3.72;;;8.90;99.90;;;;;;5054472;28;20596;-82
2022/11/05 04:38:02;;;;;;;3.00;2.67;;;9.00;99.90;;;;;;5054578;28;20214;-82
2022/11/05 04:40:29;;;;;;;3.92;3.63;;;9.10;99.90;;;;;;5054018;28;20226;-82
2022/11/05 04:42:57;;;;;;;4.32;3.45;;;9.10;99.90;;;;;;5053432;28;20197;-81
2022/11/05 04:45:25;;;;;;;5.15;3.45;;;9.10;99.90;;;;;;5053773;28;20249;-81
2022/11/05 04:47:52;;;;;;;3.85;3.25;;;9.20;99.90;;;;;;5061906;28;20182;-81
2022/11/05 04:50:19;;;;;;;3.10;2.90;;;9.20;99.90;;;;;;5060230;28;20569;-82
2022/11/05 04:52:48;;;;;;;3.00;2.78;;;9.20;99.90;;;;;;5054614;28;20292;-82
2022/11/05 04:55:15;;;;;;;3.20;2.90;;;9.30;99.90;;;;;;5054182;28;20229;-81
2022/11/05 04:57:42;;;;;;;4.00;3.28;;;9.30;99.90;;;;;;5053659;28;20207;-81
2022/11/05 05:00:10;;;;;;;7.78;2.80;;;9.10;99.90;;;;;;5053896;28;20316;-81
2022/11/05 05:02:37;;;;;;;3.60;3.15;;;8.90;99.90;;;;;;5075813;22;20268;-84
2022/11/05 05:05:06;;;;;;;3.65;2.15;;;8.80;99.90;;;;;;5072370;28;20292;-84
2022/11/05 05:07:33;;;;;;;4.20;3.00;;;8.70;99.90;;;;;;5072198;28;20212;-84
2022/11/05 05:10:01;;;;;;;2.22;2.00;;;8.70;99.90;;;;;;5071727;28;20745;-84
2022/11/05 05:12:28;;;;;;;3.70;2.15;;;8.60;99.90;;;;;;5072005;28;20747;-84
2022/11/05 05:14:55;;;;;;;2.78;2.58;;;8.50;99.90;;;;;;5071618;28;20197;-84
2022/11/05 05:17:22;;;;;;;2.00;1.90;;;8.50;99.90;;;;;;5072042;28;20205;-84
2022/11/05 05:22:34;;;;;;;3.65;2.33;;;8.40;99.90;;;;;;5071955;28;20693;-84
2022/11/05 05:25:02;;;;;;;2.50;2.30;;;8.40;99.90;;;;;;5072025;28;20225;-84
2022/11/05 05:27:30;;;;;;;2.88;1.85;;;8.40;99.90;;;;;;5072083;28;20203;-84
2022/11/05 05:29:56;;;;;;;3.00;2.80;;;8.40;99.90;;;;;;5071870;28;20213;-84
2022/11/05 05:32:24;;;;;;;2.72;2.45;;;8.30;99.90;;;;;;5071761;28;20225;-84
2022/11/05 05:34:51;;;;;;;3.15;2.53;;;8.30;99.90;;;;;;5071948;28;20591;-84
2022/11/05 05:37:19;;;;;;;2.50;2.30;;;8.50;99.90;;;;;;5071836;28;20202;-84
2022/11/05 05:39:46;;;;;;;3.30;2.70;;;8.50;99.90;;;;;;5071671;28;20213;-85
2022/11/05 05:42:15;;;;;;;3.63;2.92;;;8.60;99.90;;;;;;5072074;28;20232;-84
2022/11/05 05:44:41;;;;;;;3.22;2.17;;;8.70;99.90;;;;;;5071769;28;20701;-85
2022/11/05 05:47:08;;;;;;;2.55;2.35;;;8.80;99.90;;;;;;5071734;28;20689;-84
2022/11/05 05:49:35;;;;;;;4.18;2.45;;;8.80;99.90;;;;;;5071680;28;20582;-85
2022/11/05 05:52:02;;;;;;;2.92;2.50;;;8.80;99.90;;;;;;5072111;28;20308;-85
2022/11/05 05:54:29;;;;;;;3.05;2.65;;;8.80;99.90;;;;;;5075412;28;20209;-84
2022/11/05 05:56:56;;;;;;;2.53;2.33;;;8.90;99.90;;;;;;5075630;28;20238;-85
2022/11/05 05:59:24;;;;;;;3.00;2.25;;;8.90;99.90;;;;;;5075001;28;20210;-85
2022/11/05 06:01:51;;;;;;;2.77;2.57;;;8.90;99.90;;;;;;5075162;28;20741;-85
2022/11/05 06:04:18;;;;;;;2.40;2.15;;;8.90;99.90;;;;;;5075002;28;20451;-85
2022/11/05 06:06:45;;;;;;;4.00;3.58;;;8.80;99.90;;;;;;5075183;28;20204;-83
2022/11/05 06:09:12;;;;;;;4.07;3.20;;;8.80;99.90;;;;;;5075027;28;20201;-84
2022/11/05 06:11:39;;;;;;;3.92;2.50;;;8.90;99.90;;;;;;5074939;28;20219;-84
2022/11/05 06:14:08;;;;;;;4.88;3.00;;;8.90;99.90;;;;;;5075362;28;20209;-84
2022/11/05 06:16:37;;;;;;;2.60;2.40;;;8.90;99.90;;;;;;5074746;28;20222;-84
2022/11/05 06:19:04;;;;;;;3.97;2.70;;;8.80;99.90;;;;;;5074805;28;20201;-84
2022/11/05 06:21:31;;;;;;;4.50;2.83;;;8.80;99.90;;;;;;5075065;28;20202;-84
2022/11/05 06:24:00;;;;;;;5.90;3.03;;;8.70;99.90;;;;;;5075258;28;20583;-84
2022/11/05 06:26:27;;;;;;;4.68;4.10;;;8.60;99.90;;;;;;5075189;28;20205;-83
2022/11/05 06:28:54;;;;;;;4.30;3.72;;;8.70;99.90;;;;;;5074540;28;20203;-84
2022/11/05 06:31:21;;;;;;;4.85;4.13;;;8.60;99.90;;;;;;5074684;28;20210;-85
2022/11/05 06:33:49;;;;;;;10.63;7.70;;;8.60;99.90;;;;;;5074611;28;20213;-84
2022/11/05 06:36:18;;;;;;;10.35;8.52;;;8.60;99.90;;;;;;5075236;28;20230;-85
2022/11/05 06:38:45;;;;;;;12.63;9.20;;;8.60;99.90;;;;;;5074561;28;20206;-85
2022/11/05 06:41:12;;;;;;;12.23;9.68;;;8.60;99.90;;;;;;5074615;28;20229;-85
2022/11/05 06:43:39;;;;;;;21.15;14.45;;;8.70;99.90;;;;;;5074489;28;20224;-85
2022/11/05 06:46:06;;;;;;;24.63;16.30;;;8.70;99.90;;;;;;5074586;28;20287;-85
2022/11/05 06:48:34;;;;;;;25.55;17.48;;;8.60;99.90;;;;;;5074363;28;20202;-86
2022/11/05 06:51:03;;;;;;;23.40;18.08;;;8.70;99.90;;;;;;5074720;28;20237;-85
2022/11/05 06:53:30;;;;;;;22.80;17.90;;;8.60;99.90;;;;;;5074433;28;20223;-85
2022/11/05 06:55:57;;;;;;;24.33;17.67;;;8.50;99.90;;;;;;5074450;28;20225;-86
2022/11/05 06:58:25;;;;;;;28.33;21.00;;;8.50;99.90;;;;;;5075689;28;20197;-84
2022/11/05 07:00:52;;;;;;;33.47;22.25;;;8.50;99.90;;;;;;5074735;28;20205;-85
2022/11/05 07:03:19;;;;;;;34.28;20.80;;;8.50;99.90;;;;;;5073856;28;20232;-85
2022/11/05 07:05:48;;;;;;;33.70;21.25;;;8.50;99.90;;;;;;5074533;28;20201;-85
2022/11/05 07:08:17;;;;;;;35.03;23.60;;;8.60;99.90;;;;;;5074227;28;20202;-85
2022/11/05 07:10:44;;;;;;;31.75;23.15;;;8.50;99.90;;;;;;5074289;28;20205;-85
2022/11/05 07:13:10;;;;;;;33.88;24.45;;;8.60;99.90;;;;;;5074065;28;20714;-84
2022/11/05 07:15:37;;;;;;;33.03;23.02;;;8.70;99.90;;;;;;5074356;28;20239;-85
2022/11/05 07:18:06;;;;;;;36.85;24.25;;;8.70;99.90;;;;;;5073988;28;20204;-86
2022/11/05 07:20:33;;;;;;;36.53;24.38;;;8.80;99.90;;;;;;5074100;28;20205;-85
2022/11/05 07:23:02;;;;;;;33.05;23.60;;;8.80;99.90;;;;;;5073348;28;20701;-86
2022/11/05 07:25:31;;;;;;;32.20;23.00;;;8.80;99.90;;;;;;5074012;28;20241;-84
2022/11/05 07:27:58;;;;;;;36.92;22.27;;;8.90;99.90;;;;;;5073871;28;20222;-86
2022/11/05 07:30:25;;;;;;;35.03;23.85;;;8.90;99.90;;;;;;5073616;28;20207;-85
2022/11/05 07:32:52;;;;;;;31.48;22.95;;;8.90;99.90;;;;;;5073824;28;20278;-86
2022/11/05 07:35:18;;;;;;;33.97;23.92;;;9.00;99.90;;;;;;5073706;28;20212;-85
2022/11/05 07:38:02;;;;;;;35.90;24.13;;;9.00;99.90;;;;;;5075864;28;20201;-85
2022/11/05 07:40:31;;;;;;;37.08;23.40;;;9.00;99.90;;;;;;5073490;28;20189;-84
2022/11/05 07:42:59;;;;;;;30.85;23.88;;;9.00;99.90;;;;;;5073424;28;20218;-85
2022/11/05 07:45:28;;;;;;;34.55;22.48;;;8.90;99.90;;;;;;5073630;28;20576;-85
2022/11/05 07:47:57;;;;;;;30.50;21.67;;;8.70;99.90;;;;;;5073197;28;20615;-84
2022/11/05 07:50:26;;;;;;;29.63;21.98;;;8.70;99.90;;;;;;5073856;28;20209;-83
2022/11/05 07:52:53;;;;;;;31.70;20.88;;;8.60;99.90;;;;;;5073649;28;20235;-84
2022/11/05 07:55:20;;;;;;;31.35;18.92;;;8.60;99.90;;;;;;5073474;28;20202;-84
2022/11/05 07:57:50;;;;;;;29.17;21.98;;;8.50;99.90;;;;;;5072676;28;20200;-86
2022/11/05 08:00:20;;;;;;;34.63;21.23;;;8.50;99.90;;;;;;5073497;28;20661;-84
2022/11/05 08:03:21;;;;;;;37.38;23.15;;;8.40;99.90;;;;;;5072472;28;20725;-84
2022/11/05 08:05:48;;;;;;;32.63;22.40;;;8.40;99.90;;;;;;5072613;28;21044;-84
2022/11/05 08:08:17;;;;;;;39.95;22.60;;;8.40;99.90;;;;;;5073103;28;20299;-84
2022/11/05 08:10:45;;;;;;;32.60;22.45;;;8.40;99.90;;;;;;5073504;28;20773;-85
2022/11/05 08:13:13;;;;;;;28.23;20.05;;;8.40;99.90;;;;;;5072641;28;20305;-86
2022/11/05 08:15:41;;;;;;;27.40;18.88;;;8.50;99.90;;;;;;5066037;28;20266;-85
2022/11/05 08:18:11;;;;;;;25.60;16.85;;;8.50;99.90;;;;;;5068985;28;20622;-86
2022/11/05 08:20:38;;;;;;;18.55;12.75;;;8.30;99.90;;;;;;5061405;28;20209;-85
2022/11/05 08:23:05;;;;;;;18.05;13.00;;;8.20;99.90;;;;;;5065032;28;20221;-85
2022/11/05 08:25:32;;;;;;;18.42;12.27;;;8.30;99.90;;;;;;5059973;28;20200;-86
2022/11/05 08:28:00;;;;;;;14.70;10.45;;;8.20;99.90;;;;;;5064975;28;20209;-84
2022/11/05 08:30:29;;;;;;;12.27;10.45;;;8.20;99.90;;;;;;5063884;28;20248;-85
2022/11/05 08:32:58;;;;;;;12.73;9.70;;;8.20;99.90;;;;;;5060318;28;20263;-85
2022/11/05 08:35:25;;;;;;;18.92;11.63;;;8.10;99.90;;;;;;5061969;28;20671;-85
2022/11/05 08:37:55;;;;;;;12.93;11.13;;;8.10;99.90;;;;;;5086469;28;20221;-84
2022/11/05 08:40:22;;;;;;;14.07;8.85;;;8.10;99.90;;;;;;5081550;28;20311;-85
2022/11/05 08:46:18;;;;;;;7.22;6.45;;;7.90;99.90;;;;;;5049784;28;20194;-87
2022/11/05 08:51:27;;;;;;;15.73;8.23;;;7.70;99.90;;;;;;5083594;28;20209;-85
2022/11/05 08:53:54;;;;;;;9.57;7.30;;;7.70;99.90;;;;;;5076037;28;20291;-85
2022/11/05 08:56:22;;;;;;;12.55;7.18;;;7.70;99.90;;;;;;5074666;28;20232;-86
2022/11/05 08:58:49;;;;;;;9.98;6.68;;;7.70;99.90;;;;;;5074557;28;20205;-85
2022/11/05 09:01:17;;;;;;;9.20;6.95;;;7.70;99.90;;;;;;5073687;28;20522;-85
2022/11/05 09:03:44;;;;;;;9.48;7.75;;;7.80;99.90;;;;;;5073680;28;20313;-86
2022/11/05 09:06:11;;;;;;;7.63;6.18;;;7.80;99.90;;;;;;5073360;28;20204;-86
2022/11/05 09:08:37;;;;;;;10.27;7.82;;;7.80;99.90;;;;;;5078596;28;20250;-87
2022/11/05 09:11:06;;;;;;;7.10;5.82;;;7.80;99.90;;;;;;5083066;28;20205;-88
2022/11/05 09:13:33;;;;;;;13.25;7.78;;;7.90;99.90;;;;;;5078590;28;20249;-87
2022/11/05 09:16:00;;;;;;;7.18;6.43;;;8.00;99.90;;;;;;5072906;28;20250;-86
2022/11/05 09:18:32;;;;;;;11.27;7.15;;;8.00;99.90;;;;;;5073062;28;20295;-87
2022/11/05 09:21:02;;;;;;;5.80;5.28;;;8.00;99.90;;;;;;5072949;28;20262;-88
2022/11/05 09:23:28;;;;;;;6.32;5.68;;;8.00;99.90;;;;;;5074021;28;20266;-87
2022/11/05 09:25:55;;;;;;;10.35;7.15;;;8.00;99.90;;;;;;5073013;28;20212;-88
2022/11/05 09:28:24;;;;;;;8.32;6.63;;;8.10;99.90;;;;;;5076130;28;20282;-86
2022/11/05 09:30:52;;;;;;;7.72;6.60;;;8.20;99.90;;;;;;5076353;28;20669;-86
2022/11/05 09:33:22;;;;;;;7.05;5.38;;;8.20;99.90;;;;;;5076433;28;20227;-86
2022/11/05 09:35:51;;;;;;;6.40;5.50;;;8.20;99.90;;;;;;5076463;28;20197;-86
2022/11/05 09:38:18;;;;;;;7.82;5.90;;;8.30;99.90;;;;;;5076304;28;20254;-86
2022/11/05 09:40:57;;;;;;;13.05;5.60;;;8.30;99.90;;;;;;5076271;28;20212;-86
2022/11/05 09:43:30;;;;;;;5.78;5.28;;;8.30;99.90;;;;;;5056402;28;20221;-86
2022/11/05 09:46:00;;;;;;;6.10;5.13;;;8.30;99.90;;;;;;5056314;28;20288;-85
2022/11/05 09:48:30;;;;;;;5.38;4.50;;;8.30;99.90;;;;;;5075639;28;20219;-86
2022/11/05 09:50:59;;;;;;;5.35;4.85;;;8.30;99.90;;;;;;5076026;28;20280;-86
2022/11/05 09:53:26;;;;;;;6.03;5.10;;;8.30;99.90;;;;;;5075872;28;20235;-86
2022/11/05 09:55:56;;;;;;;9.45;6.05;;;8.40;99.90;;;;;;5075607;28;20353;-86
2022/11/05 09:58:31;;;;;;;6.00;5.25;;;8.50;99.90;;;;;;5079377;28;20297;-87
2022/11/05 10:00:58;;;;;;;10.32;5.93;;;8.50;99.90;;;;;;5081233;28;20276;-87
2022/11/05 10:03:28;;;;;;;8.10;7.10;;;8.40;99.90;;;;;;5075088;28;20866;-86
2022/11/05 10:06:09;;;;;;;11.55;8.63;;;8.40;99.90;;;;;;5075672;28;20646;-86
2022/11/05 10:08:44;;;;;;;10.60;7.07;;;8.40;99.90;;;;;;5075293;28;20716;-86
2022/11/05 10:11:16;;;;;;;10.25;7.20;;;8.30;99.90;;;;;;5075852;28;20194;-86
2022/11/05 10:13:47;;;;;;;10.90;8.05;;;8.30;99.90;;;;;;5075716;28;20232;-87
2022/11/05 10:16:21;;;;;;;9.70;8.32;;;8.20;99.90;;;;;;5075790;28;20241;-86
2022/11/05 10:18:52;;;;;;;7.90;6.95;;;8.20;99.90;;;;;;5075356;28;20275;-86
2022/11/05 10:21:20;;;;;;;6.93;6.22;;;8.10;99.90;;;;;;5075248;28;20221;-86
2022/11/05 10:23:47;;;;;;;10.43;8.00;;;8.10;99.90;;;;;;5075472;28;20658;-86
2022/11/05 10:26:18;;;;;;;12.13;8.63;;;8.10;99.90;;;;;;5074938;28;20207;-86
2022/11/05 10:28:45;;;;;;;12.00;9.18;;;8.10;99.90;;;;;;5075291;28;20200;-86
2022/11/05 10:31:14;;;;;;;13.40;10.43;;;8.20;99.90;;;;;;5075531;28;20201;-87
2022/11/05 10:33:46;;;;;;;10.25;9.25;;;8.20;99.90;;;;;;5074721;28;20274;-87
2022/11/05 10:36:24;;;;;;;11.70;8.38;;;8.20;99.90;;;;;;5075183;28;20204;-87
2022/11/05 10:38:53;;;;;;;11.60;8.55;;;8.20;99.90;;;;;;5054442;28;20194;-87
2022/11/05 10:41:37;;;;;;;12.60;8.90;;;8.30;99.90;;;;;;5054960;28;20668;-86
2022/11/05 10:44:16;;;;;;;16.50;11.70;;;8.40;99.90;;;;;;5054775;28;20197;-87
2022/11/05 10:46:53;;;;;;;11.02;9.55;;;8.50;99.90;;;;;;5054578;28;20276;-87
2022/11/05 10:49:30;;;;;;;18.88;9.40;;;8.60;99.90;;;;;;5054947;28;20276;-87
2022/11/05 10:52:03;;;;;;;20.90;11.70;;;8.70;99.90;;;;;;5054374;28;20230;-87
2022/11/05 10:54:34;;;;;;;12.13;9.27;;;8.80;99.90;;;;;;5055334;28;20199;-87
2022/11/05 10:57:21;;;;;;;11.70;8.50;;;8.80;99.90;;;;;;5054626;28;20252;-87
2022/11/05 10:59:48;;;;;;;11.68;8.13;;;8.70;99.90;;;;;;5057461;28;20212;-87
2022/11/05 11:22:28;;;;;;;11.77;8.73;;;8.80;99.90;;;;;;5074562;28;20243;-83
2022/11/05 11:24:55;;;;;;;12.82;10.20;;;8.80;99.90;;;;;;4998000;28;20189;-83
2022/11/05 11:27:25;;;;;;;12.77;8.52;;;8.80;99.90;;;;;;5045931;28;20217;-83
2022/11/05 11:29:57;;;;;;;9.23;6.80;;;8.90;99.90;;;;;;5059418;28;20191;-83
2022/11/05 11:32:28;;;;;;;11.20;7.78;;;9.00;99.90;;;;;;5059898;28;20230;-83
2022/11/05 11:34:56;;;;;;;10.77;7.65;;;9.00;99.90;;;;;;5060225;28;20281;-83
2022/11/05 11:37:26;;;;;;;12.65;8.95;;;9.00;99.90;;;;;;5059798;28;20325;-83
2022/11/05 11:39:57;;;;;;;13.77;9.50;;;9.10;99.90;;;;;;5061015;28;20667;-83
2022/11/05 11:42:30;;;;;;;10.07;9.02;;;9.20;99.90;;;;;;5059332;28;20230;-83
2022/11/05 11:44:59;;;;;;;8.60;7.65;;;9.10;99.90;;;;;;5059552;28;20216;-84
2022/11/05 11:47:27;;;;;;;10.43;8.15;;;9.10;99.90;;;;;;5059129;28;20203;-83
2022/11/05 11:49:56;;;;;;;10.45;8.40;;;9.10;99.90;;;;;;5058286;28;20203;-83
2022/11/05 11:52:28;;;;;;;10.00;7.88;;;9.10;99.90;;;;;;5060474;28;20330;-84
2022/11/05 11:55:19;;;;;;;11.40;7.90;;;9.20;99.90;;;;;;5060498;28;20201;-83
2022/11/05 11:57:47;;;;;;;8.35;7.55;;;9.10;99.90;;;;;;5058023;28;20223;-83
2022/11/05 12:00:15;;;;;;;10.50;8.55;;;9.20;99.90;;;;;;5058194;28;20211;-84
2022/11/05 12:03:28;;;;;;;8.57;7.63;;;9.30;99.90;;;;;;5058737;28;20233;-83
2022/11/05 12:06:04;;;;;;;7.10;6.07;;;9.40;99.90;;;;;;5059064;28;20220;-83
2022/11/05 12:08:47;;;;;;;8.10;6.22;;;9.50;99.90;;;;;;5057518;28;20675;-84
2022/11/05 12:11:23;;;;;;;7.68;6.53;;;9.60;99.90;;;;;;5057800;28;20284;-83
2022/11/05 12:20:14;;;;;;;7.07;6.13;;;9.90;99.90;;;;;;5059673;28;20201;-85
2022/11/05 12:23:10;;;;;;;7.13;6.43;;;10.00;99.90;;;;;;5059977;28;20534;-85
2022/11/05 12:25:51;;;;;;;6.10;5.38;;;10.10;99.90;;;;;;5053635;28;20208;-86
2022/11/05 12:28:48;;;;;;;5.50;5.00;;;9.90;99.90;;;;;;5046873;28;20302;-86
2022/11/05 12:31:27;;;;;;;6.00;5.40;;;9.80;99.90;;;;;;5037649;28;20938;-85
2022/11/05 12:37:34;;;;;;;7.05;5.53;;;9.40;99.90;;;;;;4975613;28;20236;-85
2022/11/05 12:40:29;;;;;;;7.25;6.50;;;9.40;99.90;;;;;;4993309;28;20207;-85
2022/11/05 12:43:18;;;;;;;8.50;7.50;;;9.30;99.90;;;;;;5045549;28;20595;-85
2022/11/05 12:46:03;;;;;;;6.30;5.68;;;9.30;99.90;;;;;;5059427;28;20274;-85
2022/11/05 13:02:31;;;;;;;5.30;4.90;;;9.60;99.90;;;;;;4977399;28;20220;-85
2022/11/05 13:44:48;;;;;;;11.25;6.72;;;9.60;99.90;;;;;;5555858;22;20239;-85
2022/11/05 13:47:51;;;;;;;8.05;6.22;;;9.50;99.90;;;;;;5038309;28;20319;-85
2022/11/05 14:03:54;;;;;;;8.57;7.38;;;9.40;99.90;;;;;;5061886;28;20255;-85
2022/11/05 14:06:27;;;;;;;7.60;6.38;;;9.40;99.90;;;;;;5074466;28;20211;-85
2022/11/05 14:09:00;;;;;;;8.85;6.95;;;9.40;99.90;;;;;;5075440;28;20198;-83
2022/11/05 14:11:30;;;;;;;9.05;6.47;;;9.30;99.90;;;;;;5068584;28;20208;-83
2022/11/05 14:14:01;;;;;;;9.00;7.95;;;9.30;99.90;;;;;;5075877;28;20254;-82
2022/11/05 14:16:40;;;;;;;10.82;9.15;;;9.30;99.90;;;;;;5066766;28;20204;-82
2022/11/05 14:19:50;;;;;;;9.60;7.20;;;9.20;99.90;;;;;;5081784;28;20212;-82
2022/11/05 14:22:37;;;;;;;9.90;8.55;;;9.30;99.90;;;;;;5058501;28;20585;-82
2022/11/05 14:25:38;;;;;;;6.90;6.30;;;9.20;99.90;;;;;;5063449;28;20206;-82
2022/11/05 14:28:38;;;;;;;6.80;6.00;;;9.20;99.90;;;;;;5057625;28;20210;-82
2022/11/05 14:31:29;;;;;;;8.50;7.57;;;9.20;99.90;;;;;;5076692;28;20211;-83
2022/11/05 14:34:01;;;;;;;8.98;7.35;;;9.20;99.90;;;;;;5079367;28;20221;-82
2022/11/05 14:36:35;;;;;;;7.90;6.60;;;9.30;99.90;;;;;;5079456;28;20206;-81
2022/11/05 14:39:30;;;;;;;9.07;6.07;;;9.20;99.90;;;;;;5078845;28;20210;-82
2022/11/05 14:42:01;;;;;;;8.80;7.05;;;9.20;99.90;;;;;;5042789;28;20204;-82
2022/11/05 14:44:29;;;;;;;13.73;7.35;;;9.10;99.90;;;;;;5078571;28;20190;-82
2022/11/05 14:46:59;;;;;;;9.40;6.85;;;9.30;99.90;;;;;;5078623;28;20210;-82
2022/11/05 14:49:28;;;;;;;8.63;6.35;;;9.20;99.90;;;;;;5079030;28;20206;-82
2022/11/05 14:51:59;;;;;;;9.13;8.27;;;9.20;99.90;;;;;;5079035;28;20214;-82
2022/11/05 14:54:34;;;;;;;10.80;7.78;;;9.20;99.90;;;;;;5090673;28;20189;-81
2022/11/05 14:57:02;;;;;;;7.13;6.43;;;9.30;99.90;;;;;;5061378;28;20643;-82
2022/11/05 14:59:57;;;;;;;6.78;6.10;;;9.30;99.90;;;;;;5058810;28;20206;-81
2022/11/05 15:02:26;;;;;;;10.90;7.60;;;9.30;99.90;;;;;;5035444;28;20930;-82
2022/11/05 15:05:26;;;;;;;11.68;9.63;;;9.20;99.90;;;;;;5037829;28;20806;-82
2022/11/05 15:07:58;;;;;;;8.73;7.82;;;9.10;99.90;;;;;;5037628;28;20207;-82
2022/11/05 15:10:30;;;;;;;10.50;7.25;;;9.10;99.90;;;;;;5037867;28;20192;-81
2022/11/05 15:13:03;;;;;;;7.18;6.47;;;9.10;99.90;;;;;;5037652;28;20713;-82
2022/11/05 15:15:38;;;;;;;7.93;6.47;;;9.10;99.90;;;;;;5060344;28;20194;-81
2022/11/05 15:18:11;;;;;;;12.00;7.25;;;9.10;99.90;;;;;;5077753;28;20241;-81
2022/11/05 15:20:42;;;;;;;9.85;6.82;;;9.10;99.90;;;;;;5077819;28;20189;-81
2022/11/05 15:23:13;;;;;;;8.35;6.75;;;9.00;99.90;;;;;;5078013;28;20248;-81
2022/11/05 15:25:49;;;;;;;10.45;7.97;;;9.00;99.90;;;;;;5078367;28;20194;-82
2022/11/05 15:28:21;;;;;;;8.07;6.70;;;8.90;99.90;;;;;;5066700;28;20192;-81
2022/11/05 15:30:57;;;;;;;9.20;8.30;;;9.00;99.90;;;;;;5057890;28;20200;-82
2022/11/05 15:33:24;;;;;;;8.82;7.38;;;9.10;99.90;;;;;;5057506;28;20230;-82
2022/11/05 15:35:51;;;;;;;9.05;7.60;;;9.10;99.90;;;;;;5058170;28;20574;-82
2022/11/05 15:38:28;;;;;;;8.50;7.60;;;9.00;99.90;;;;;;5065132;28;20221;-81